Time;durP1;ratioP1;P1;durP2;ratioP2;P2;SDS_P1;SDS_P2;PMS_P1;PMS_P2;Temp;Humidity;BMP_temperature;BMP_pressure;BME280_temperature;BME280_humidity;BME280_pressure;Samples;Min_cycle;Max_cycle;Signal;HPM_P1;HPM_P2
2022/05/25 00:01:12;;;;;;;8.15;7.45;;;;;;;18.21;64.12;94742.75;5116664;28;20630;-74
2022/05/25 00:03:39;;;;;;;8.13;7.38;;;;;;;18.17;63.93;94744.78;5115663;28;20211;-74
2022/05/25 00:06:09;;;;;;;7.93;7.32;;;;;;;18.17;64.20;94741.97;5116148;28;20184;-75
2022/05/25 00:08:36;;;;;;;8.00;7.35;;;;;;;18.15;64.15;94742.38;5115440;28;20191;-75
2022/05/25 00:11:05;;;;;;;8.18;7.47;;;;;;;18.12;64.32;94742.41;5115065;28;20211;-74
2022/05/25 00:13:32;;;;;;;7.72;7.13;;;;;;;18.14;64.33;94745.59;5116488;28;20262;-74
2022/05/25 00:15:58;;;;;;;8.10;7.40;;;;;;;18.12;64.39;94748.78;5114868;28;20203;-75
2022/05/25 00:18:25;;;;;;;8.32;7.53;;;;;;;18.14;64.30;94748.38;5114763;28;20184;-75
2022/05/25 00:20:51;;;;;;;8.88;7.97;;;;;;;18.11;64.34;94757.56;5115468;28;20191;-75
2022/05/25 00:23:18;;;;;;;8.02;7.25;;;;;;;18.09;64.36;94752.41;5115265;28;20199;-74
2022/05/25 00:25:45;;;;;;;8.52;7.80;;;;;;;18.07;64.36;94746.41;5119044;28;20195;-74
2022/05/25 00:28:15;;;;;;;8.77;7.82;;;;;;;18.06;64.25;94746.84;5119221;28;20219;-75
2022/05/25 00:30:43;;;;;;;8.63;7.90;;;;;;;18.06;64.26;94746.84;5120615;28;20214;-75
2022/05/25 00:33:11;;;;;;;9.48;8.05;;;;;;;18.04;64.41;94744.44;5119787;28;20252;-75
2022/05/25 00:35:40;;;;;;;8.85;8.00;;;;;;;18.03;64.36;94748.44;5119164;28;20195;-75
2022/05/25 00:38:09;;;;;;;9.05;8.25;;;;;;;18.04;64.20;94750.03;5118857;28;20195;-75
2022/05/25 00:40:37;;;;;;;9.05;8.20;;;;;;;18.04;64.15;94741.66;5118477;28;20269;-75
2022/05/25 00:43:05;;;;;;;8.52;7.72;;;;;;;18.03;64.17;94749.22;5118298;28;20235;-75
2022/05/25 00:45:36;;;;;;;8.55;7.80;;;;;;;18.01;64.29;94742.47;5119510;28;20195;-75
2022/05/25 00:48:03;;;;;;;9.20;7.93;;;;;;;17.98;64.24;94751.69;5120388;28;20186;-74
2022/05/25 00:51:12;;;;;;;8.25;7.45;;;;;;;17.90;64.30;94755.69;5120151;28;20194;-73
2022/05/25 00:53:17;;;;;;;9.02;8.13;;;;;;;17.82;64.46;94754.16;5118801;28;20231;-73
2022/05/25 00:55:46;;;;;;;8.82;7.90;;;;;;;17.78;64.51;94754.19;5120640;28;20623;-74
2022/05/25 00:58:31;;;;;;;8.68;7.90;;;;;;;17.77;64.48;94753.38;5120977;28;20199;-74
2022/05/25 01:01:00;;;;;;;8.20;7.40;;;;;;;17.77;64.71;94752.59;5119936;28;20639;-74
2022/05/25 01:03:28;;;;;;;8.40;7.60;;;;;;;17.76;64.70;94754.59;5119869;28;20184;-74
2022/05/25 01:06:00;;;;;;;10.60;7.40;;;;;;;17.76;64.75;94754.59;5120807;28;20184;-74
2022/05/25 01:08:35;;;;;;;8.25;7.50;;;;;;;17.76;64.73;94756.59;5120401;28;20188;-74
2022/05/25 01:11:14;;;;;;;8.15;7.45;;;;;;;17.72;65.04;94758.56;5119574;28;20208;-74
2022/05/25 01:13:44;;;;;;;8.32;7.53;;;;;;;17.72;65.04;94764.13;5119456;28;20192;-76
2022/05/25 01:16:23;;;;;;;8.55;7.72;;;;;;;17.70;64.90;94767.34;5118686;28;20245;-74
2022/05/25 01:18:54;;;;;;;9.13;7.90;;;;;;;17.65;65.13;94766.97;5117729;28;20252;-74
2022/05/25 01:21:25;;;;;;;9.25;7.43;;;;;;;17.63;64.95;94770.16;5118460;28;20184;-74
2022/05/25 01:23:57;;;;;;;8.30;7.50;;;;;;;17.63;65.01;94770.16;5117690;28;20191;-74
2022/05/25 01:26:47;;;;;;;8.98;8.07;;;;;;;17.62;64.97;94770.56;5118625;28;20180;-74
2022/05/25 01:29:49;;;;;;;8.68;7.75;;;;;;;17.60;65.05;94767.38;5118442;28;20188;-74
2022/05/25 01:32:23;;;;;;;8.93;8.23;;;;;;;17.60;65.31;94772.97;5070466;28;20223;-74
2022/05/25 01:34:54;;;;;;;8.80;8.00;;;;;;;17.60;65.39;94773.75;5116888;28;20208;-74
2022/05/25 01:37:26;;;;;;;8.90;8.10;;;;;;;17.59;65.27;94769.38;5116260;28;20196;-74
2022/05/25 01:39:55;;;;;;;7.88;7.18;;;;;;;17.53;65.13;94765.41;5117963;28;20195;-74
2022/05/25 01:42:26;;;;;;;8.80;8.10;;;;;;;17.46;65.22;94776.59;5120756;28;20231;-73
2022/05/25 01:44:57;;;;;;;8.13;7.43;;;;;;;17.39;65.21;94771.06;5119022;28;20221;-73
2022/05/25 01:47:28;;;;;;;8.65;7.65;;;;;;;17.31;65.28;94773.06;5119300;28;20653;-73
2022/05/25 01:49:57;;;;;;;8.30;7.53;;;;;;;17.25;65.21;94774.72;5118858;28;20203;-74
2022/05/25 01:52:27;;;;;;;9.02;8.23;;;;;;;17.21;65.43;94774.72;5120258;28;20208;-74
2022/05/25 01:54:57;;;;;;;8.75;8.00;;;;;;;17.19;65.48;94773.53;5118158;28;20202;-73
2022/05/25 01:57:27;;;;;;;9.18;8.18;;;;;;;17.14;65.58;94780.31;5120668;28;20218;-73
2022/05/25 01:59:54;;;;;;;8.88;7.90;;;;;;;17.09;65.57;94786.28;5118644;28;20249;-73
2022/05/25 02:05:10;;;;;;;9.43;7.80;;;;;;;16.97;65.91;94792.28;5118434;28;20204;-73
2022/05/25 02:07:51;;;;;;;8.75;7.85;;;;;;;16.94;66.09;94788.31;5118753;28;20195;-73
2022/05/25 02:10:26;;;;;;;8.80;7.90;;;;;;;16.96;65.79;94796.28;5118983;28;20195;-73
2022/05/25 02:13:01;;;;;;;8.73;7.85;;;;;;;16.94;65.98;94804.22;5116994;28;20297;-73
2022/05/25 02:15:35;;;;;;;8.35;7.55;;;;;;;16.86;66.30;94803.44;5118209;28;20240;-73
2022/05/25 02:18:07;;;;;;;8.65;7.93;;;;;;;16.84;66.22;94798.25;5118441;28;20176;-72
2022/05/25 02:20:41;;;;;;;9.02;8.23;;;;;;;16.84;66.46;94806.59;5116488;28;20203;-73
2022/05/25 02:23:15;;;;;;;9.02;8.13;;;;;;;16.81;66.75;94806.59;5117946;28;20179;-74
2022/05/25 02:25:46;;;;;;;9.15;8.25;;;;;;;16.79;66.51;94809.03;5117660;28;20195;-73
2022/05/25 02:28:15;;;;;;;9.38;8.48;;;;;;;16.77;66.92;94812.19;5119089;28;20202;-73
2022/05/25 02:30:46;;;;;;;9.45;8.68;;;;;;;16.74;66.76;94813.00;5118006;28;20203;-73
2022/05/25 02:33:15;;;;;;;9.73;8.75;;;;;;;16.76;66.85;94815.38;5117984;28;20218;-73
2022/05/25 02:35:46;;;;;;;9.30;8.38;;;;;;;16.74;66.83;94814.97;5118203;28;20180;-73
2022/05/25 02:38:13;;;;;;;9.40;8.50;;;;;;;16.72;67.07;94815.34;5118101;28;20203;-74
2022/05/25 02:40:41;;;;;;;9.10;8.30;;;;;;;16.66;66.92;94822.50;5119179;28;20198;-74
2022/05/25 02:43:09;;;;;;;9.23;8.48;;;;;;;16.66;67.30;94830.84;5117739;28;20238;-73
2022/05/25 02:45:37;;;;;;;9.70;8.70;;;;;;;16.66;67.40;94825.28;5117926;28;20195;-73
2022/05/25 02:48:05;;;;;;;9.48;8.63;;;;;;;16.67;67.67;94826.91;5116234;28;20192;-73
2022/05/25 02:50:32;;;;;;;10.43;9.38;;;;;;;16.71;67.86;94821.34;5116792;28;20495;-74
2022/05/25 02:53:00;;;;;;;9.95;9.05;;;;;;;16.73;68.00;94818.94;5116846;28;20276;-75
2022/05/25 02:55:27;;;;;;;10.05;9.27;;;;;;;16.70;67.56;94826.09;5116101;28;20195;-75
2022/05/25 02:57:58;;;;;;;9.30;8.40;;;;;;;16.66;67.39;94833.63;5117218;28;20260;-75
2022/05/25 03:00:26;;;;;;;9.15;8.30;;;;;;;16.58;67.64;94840.41;5116393;28;20196;-70
2022/05/25 03:02:52;;;;;;;9.57;8.75;;;;;;;16.54;67.61;94834.84;5116757;28;20198;-69
2022/05/25 03:05:20;;;;;;;9.60;8.60;;;;;;;16.57;67.88;94841.59;5115930;28;20615;-69
2022/05/25 03:07:46;;;;;;;8.77;7.97;;;;;;;16.55;68.12;94843.97;5116678;28;20195;-69
2022/05/25 03:10:15;;;;;;;10.25;9.25;;;;;;;16.45;67.67;94844.75;5115722;28;20201;-70
2022/05/25 03:12:42;;;;;;;12.45;9.20;;;;;;;16.38;67.98;94848.34;5116141;28;20638;-70
2022/05/25 03:15:09;;;;;;;9.60;8.68;;;;;;;16.35;68.22;94852.72;5116498;28;20252;-70
2022/05/25 03:17:36;;;;;;;9.40;8.45;;;;;;;16.34;68.51;94847.56;5116387;28;20614;-69
2022/05/25 03:20:03;;;;;;;9.73;8.93;;;;;;;16.36;69.02;94854.31;5116506;28;20196;-69
2022/05/25 03:22:30;;;;;;;10.25;9.20;;;;;;;16.36;69.10;94859.88;5116573;28;20194;-69
2022/05/25 03:24:56;;;;;;;9.30;8.30;;;;;;;16.35;68.69;94858.28;5115272;28;20199;-69
2022/05/25 03:27:25;;;;;;;10.38;9.38;;;;;;;16.34;68.63;94861.47;5115412;28;20535;-70
2022/05/25 03:29:51;;;;;;;13.32;9.32;;;;;;;16.35;68.77;94868.63;5115866;28;20607;-70
2022/05/25 03:32:18;;;;;;;10.38;9.38;;;;;;;16.36;68.82;94882.13;5115757;28;20215;-70
2022/05/25 03:34:48;;;;;;;10.23;9.27;;;;;;;16.42;68.67;94885.34;5116422;28;20188;-70
2022/05/25 03:37:15;;;;;;;10.88;9.77;;;;;;;16.44;68.46;94877.38;5116631;28;20226;-70
2022/05/25 03:39:42;;;;;;;9.90;9.10;;;;;;;16.45;68.51;94883.72;5116117;28;20204;-70
2022/05/25 03:42:09;;;;;;;11.23;9.27;;;;;;;16.40;68.29;94879.34;5115446;28;20192;-69
2022/05/25 03:44:38;;;;;;;11.05;9.45;;;;;;;16.33;68.34;94887.69;5114858;28;20192;-70
2022/05/25 03:47:05;;;;;;;10.00;9.00;;;;;;;16.34;68.81;94889.31;5097877;28;20207;-69
2022/05/25 03:49:32;;;;;;;10.40;9.40;;;;;;;16.35;69.00;94893.69;5114603;28;20646;-69
2022/05/25 03:51:59;;;;;;;9.77;8.75;;;;;;;16.38;68.83;94901.25;5115609;28;20210;-69
2022/05/25 03:54:26;;;;;;;10.23;9.23;;;;;;;16.40;69.10;94906.41;5115755;28;20184;-70
2022/05/25 03:56:53;;;;;;;10.60;9.43;;;;;;;16.45;69.05;94904.03;5114780;28;20200;-70
2022/05/25 03:59:20;;;;;;;12.70;9.35;;;;;;;16.49;69.09;94902.06;5114198;28;20360;-70
2022/05/25 04:01:48;;;;;;;10.70;9.68;;;;;;;16.51;68.98;94898.88;5115075;28;20194;-69
2022/05/25 04:04:15;;;;;;;11.00;9.98;;;;;;;16.49;69.13;94904.03;5114739;28;20199;-70
2022/05/25 04:06:42;;;;;;;10.10;9.27;;;;;;;16.51;69.30;94907.22;5114364;28;20192;-69
2022/05/25 04:09:10;;;;;;;10.73;9.63;;;;;;;16.54;69.33;94917.56;5116043;28;20191;-70
2022/05/25 04:11:37;;;;;;;10.90;9.98;;;;;;;16.59;69.69;94909.63;5115559;28;20195;-70
2022/05/25 04:14:04;;;;;;;10.82;9.48;;;;;;;16.61;69.58;94912.81;5115389;28;20184;-72
2022/05/25 04:16:31;;;;;;;10.88;9.65;;;;;;;16.62;69.67;94902.47;5115571;28;20184;-70
2022/05/25 04:18:59;;;;;;;12.50;10.43;;;;;;;16.60;69.68;94902.06;5115182;28;20257;-70
2022/05/25 04:21:27;;;;;;;12.35;11.02;;;;;;;16.61;69.75;94906.44;5115220;28;20203;-71
2022/05/25 04:23:54;;;;;;;10.48;9.35;;;;;;;16.63;69.91;94909.63;5114357;28;20203;-71
2022/05/25 04:26:21;;;;;;;10.52;9.52;;;;;;;16.68;70.40;94903.66;5114739;28;20192;-71
2022/05/25 04:28:48;;;;;;;11.77;9.85;;;;;;;16.74;70.02;94901.31;5114103;28;20196;-70
2022/05/25 04:31:14;;;;;;;10.18;9.13;;;;;;;16.77;70.17;94906.88;5115750;28;20184;-70
2022/05/25 04:33:42;;;;;;;10.32;9.20;;;;;;;16.78;70.46;94905.69;5114954;28;20222;-69
2022/05/25 04:36:10;;;;;;;11.70;9.90;;;;;;;16.77;70.79;94920.00;5115161;28;20199;-69
2022/05/25 04:38:36;;;;;;;10.50;9.50;;;;;;;16.75;71.15;94908.47;5114364;28;20216;-71
2022/05/25 04:41:04;;;;;;;13.15;10.43;;;;;;;16.78;71.02;94908.47;5115393;28;20192;-68
2022/05/25 04:43:30;;;;;;;11.35;10.30;;;;;;;16.84;71.12;94911.66;5115489;28;20223;-69
2022/05/25 04:45:59;;;;;;;10.73;9.73;;;;;;;16.89;70.77;94910.50;5114314;28;20208;-70
2022/05/25 04:48:26;;;;;;;11.00;9.95;;;;;;;16.95;70.56;94920.03;5115266;28;20234;-70
2022/05/25 04:50:54;;;;;;;11.38;10.30;;;;;;;16.95;70.68;94908.88;5114386;28;20203;-69
2022/05/25 04:53:22;;;;;;;11.43;10.38;;;;;;;16.97;70.40;94924.00;5115161;28;20215;-68
2022/05/25 04:58:35;;;;;;;11.13;10.13;;;;;;;17.03;70.35;94905.72;5114331;28;20188;-68
2022/05/25 05:01:04;;;;;;;11.52;10.45;;;;;;;17.06;70.35;94916.03;5114196;28;20503;-69
2022/05/25 05:03:31;;;;;;;11.10;10.05;;;;;;;17.11;70.16;94911.28;5115108;28;20183;-69
2022/05/25 05:05:58;;;;;;;12.60;11.48;;;;;;;17.14;70.06;94916.03;5115072;28;20181;-69
2022/05/25 05:08:27;;;;;;;12.40;11.32;;;;;;;17.16;70.13;94906.09;5114154;28;20607;-68
2022/05/25 05:10:54;;;;;;;12.10;11.10;;;;;;;17.17;70.23;94920.81;5116441;28;20200;-68
2022/05/25 05:13:22;;;;;;;18.73;12.48;;;;;;;17.19;70.10;94913.66;5118661;28;20219;-68
2022/05/25 05:15:51;;;;;;;15.02;13.63;;;;;;;17.21;70.23;94919.63;5118955;28;20244;-68
2022/05/25 05:18:18;;;;;;;14.23;12.77;;;;;;;17.19;70.37;94933.16;5118874;28;20184;-68
2022/05/25 05:20:45;;;;;;;14.13;12.63;;;;;;;17.25;70.38;94931.56;5117678;28;20210;-67
2022/05/25 05:23:12;;;;;;;18.27;16.38;;;;;;;17.33;70.31;94930.38;5118483;28;20183;-68
2022/05/25 05:25:40;;;;;;;17.25;15.75;;;;;;;17.35;70.02;94934.72;5118131;28;20204;-68
2022/05/25 05:28:10;;;;;;;15.23;13.77;;;;;;;17.39;69.94;94933.53;5118574;28;20191;-67
2022/05/25 05:30:40;;;;;;;15.93;14.43;;;;;;;17.41;69.47;94935.94;5118493;28;20680;-67
2022/05/25 05:33:06;;;;;;;14.82;13.43;;;;;;;17.45;69.98;94942.28;5117332;28;20208;-66
2022/05/25 05:35:34;;;;;;;15.00;13.68;;;;;;;17.49;69.81;94943.88;5117071;28;20607;-68
2022/05/25 05:38:01;;;;;;;18.00;16.38;;;;;;;17.53;69.42;94944.66;5118452;28;20202;-69
2022/05/25 05:40:29;;;;;;;15.40;13.95;;;;;;;17.59;69.76;94944.28;5117987;28;20186;-68
2022/05/25 05:42:59;;;;;;;17.35;15.75;;;;;;;17.60;70.26;94949.44;5118017;28;20228;-67
2022/05/25 05:45:28;;;;;;;15.70;14.20;;;;;;;17.60;70.42;94955.00;5118775;28;20193;-69
2022/05/25 05:47:57;;;;;;;15.98;14.48;;;;;;;17.61;70.61;94959.41;5117655;28;20206;-69
2022/05/25 05:50:24;;;;;;;15.18;13.88;;;;;;;17.60;70.68;94951.44;5118451;28;20199;-69
2022/05/25 05:52:52;;;;;;;14.45;13.00;;;;;;;17.64;70.06;94947.44;5118006;28;20207;-69
2022/05/25 05:55:19;;;;;;;14.02;12.63;;;;;;;17.65;69.79;94953.84;5118594;28;20180;-69
2022/05/25 05:57:46;;;;;;;14.18;12.70;;;;;;;17.64;70.13;94961.38;5118685;28;20207;-69
2022/05/25 06:00:16;;;;;;;13.27;12.02;;;;;;;17.66;70.33;94961.00;5118535;28;20183;-69
2022/05/25 06:02:43;;;;;;;14.63;13.45;;;;;;;17.71;69.61;94957.78;5118308;28;20184;-69
2022/05/25 06:05:11;;;;;;;15.75;14.35;;;;;;;17.75;69.45;94955.78;5117833;28;20199;-69
2022/05/25 06:07:38;;;;;;;14.73;13.40;;;;;;;17.77;69.70;94953.44;5118137;28;20184;-68
2022/05/25 06:10:06;;;;;;;14.27;12.95;;;;;;;17.80;69.61;94963.78;5116764;28;20203;-68
2022/05/25 06:12:33;;;;;;;15.35;13.98;;;;;;;17.83;69.60;94965.78;5117467;28;20204;-68
2022/05/25 06:19:25;;;;;;;14.57;13.27;;;;;;;17.85;69.83;94966.16;5116672;28;20195;-68
2022/05/25 06:20:33;;;;;;;14.93;13.60;;;;;;;17.98;68.69;94960.94;5116569;28;20233;-68
2022/05/25 06:22:59;;;;;;;14.18;12.93;;;;;;;17.94;68.71;94965.75;5115850;28;20191;-68
2022/05/25 06:25:26;;;;;;;15.07;13.52;;;;;;;17.91;69.16;94960.97;5117387;28;20188;-68
2022/05/25 06:27:53;;;;;;;14.07;12.88;;;;;;;17.90;69.27;94973.31;5116634;28;20302;-67
2022/05/25 06:30:21;;;;;;;13.95;12.55;;;;;;;17.97;69.03;94971.31;5117448;28;20195;-68
2022/05/25 06:32:49;;;;;;;13.57;12.27;;;;;;;18.05;68.97;94966.50;5116127;28;20219;-68
2022/05/25 06:35:16;;;;;;;14.30;12.90;;;;;;;18.17;68.91;94970.84;5116793;28;20283;-68
2022/05/25 06:37:42;;;;;;;14.63;13.13;;;;;;;18.19;68.84;94965.63;5116400;28;20207;-68
2022/05/25 06:40:10;;;;;;;13.15;11.95;;;;;;;18.21;69.16;94969.63;5116247;28;20194;-68
2022/05/25 06:42:39;;;;;;;15.85;13.48;;;;;;;18.26;68.42;94969.22;5116049;28;20284;-68
2022/05/25 06:45:07;;;;;;;13.25;11.90;;;;;;;18.28;67.97;94977.19;5116114;28;20196;-68
2022/05/25 06:47:34;;;;;;;14.07;12.57;;;;;;;18.33;67.89;94981.53;5116134;28;20199;-68
2022/05/25 06:50:03;;;;;;;13.65;12.35;;;;;;;18.35;68.15;94973.56;5117098;28;20199;-68
2022/05/25 06:52:29;;;;;;;14.25;12.98;;;;;;;18.38;68.26;94975.56;5116854;28;20210;-67
2022/05/25 06:54:57;;;;;;;14.35;12.77;;;;;;;18.38;68.58;94975.56;5116776;28;20194;-67
2022/05/25 06:57:25;;;;;;;14.82;12.38;;;;;;;18.40;68.14;94979.50;5116853;28;20228;-68
2022/05/25 06:59:51;;;;;;;14.60;13.00;;;;;;;18.42;68.07;94985.50;5116033;28;20199;-68
2022/05/25 07:02:18;;;;;;;14.35;12.82;;;;;;;18.44;67.69;94980.28;5116712;28;20187;-68
2022/05/25 07:04:45;;;;;;;14.95;13.52;;;;;;;18.50;68.14;94986.25;5116462;28;20195;-67
2022/05/25 07:07:13;;;;;;;14.50;13.18;;;;;;;18.57;67.36;94977.06;5116429;28;20192;-67
2022/05/25 07:09:41;;;;;;;14.60;13.05;;;;;;;18.60;67.43;94985.41;5115960;28;20206;-67
2022/05/25 07:12:08;;;;;;;15.43;13.52;;;;;;;18.63;67.48;94983.81;5116175;28;20206;-68
2022/05/25 07:14:36;;;;;;;15.38;13.68;;;;;;;18.66;67.19;94992.16;5116276;28;20207;-68
2022/05/25 07:17:04;;;;;;;14.50;13.10;;;;;;;18.68;66.87;94978.59;5116161;28;20187;-68
2022/05/25 07:19:31;;;;;;;14.40;13.05;;;;;;;18.69;66.78;94993.34;5116320;28;20199;-68
2022/05/25 07:21:58;;;;;;;14.77;13.40;;;;;;;18.71;66.82;94986.19;5116305;28;20187;-68
2022/05/25 07:24:26;;;;;;;14.82;13.35;;;;;;;18.81;67.38;94986.53;5115015;28;20196;-68
2022/05/25 07:26:53;;;;;;;17.95;13.77;;;;;;;18.90;67.09;94990.47;5115860;28;20191;-68
2022/05/25 07:29:20;;;;;;;14.00;12.60;;;;;;;18.98;66.88;94983.63;5115234;28;20203;-68
2022/05/25 07:31:51;;;;;;;15.88;14.25;;;;;;;19.03;66.60;94988.00;5115880;28;20626;-68
2022/05/25 07:34:20;;;;;;;16.63;14.15;;;;;;;19.05;66.59;94971.59;5113995;28;20215;-68
2022/05/25 07:36:50;;;;;;;15.20;13.68;;;;;;;19.11;66.48;94977.56;5115986;28;20222;-68
2022/05/25 07:39:18;;;;;;;15.18;13.77;;;;;;;19.16;66.22;94983.50;5116065;28;20180;-68
2022/05/25 07:41:50;;;;;;;17.00;15.50;;;;;;;19.20;65.77;94980.66;5115311;28;20192;-68
2022/05/25 07:44:22;;;;;;;18.77;16.80;;;;;;;19.20;65.73;94975.09;5115554;28;20693;-68
2022/05/25 07:46:49;;;;;;;16.52;14.77;;;;;;;19.22;65.31;94961.50;5115880;28;20180;-68
2022/05/25 07:49:16;;;;;;;14.50;12.95;;;;;;;19.29;65.91;94949.47;5115618;28;20192;-68
2022/05/25 07:51:43;;;;;;;14.57;12.82;;;;;;;19.40;66.31;94961.34;5115887;28;20195;-68
2022/05/25 07:54:11;;;;;;;13.38;11.98;;;;;;;19.48;65.36;94957.28;5114761;28;20227;-68
2022/05/25 07:56:39;;;;;;;15.43;13.85;;;;;;;19.60;66.00;94970.75;5115500;28;20259;-68
2022/05/25 07:59:09;;;;;;;14.90;13.30;;;;;;;19.65;65.02;94967.56;5115804;28;20180;-67
2022/05/25 08:07:10;;;;;;;14.20;12.13;;;;;;;19.98;64.73;94965.22;5115306;28;20223;-67
2022/05/25 08:09:37;;;;;;;14.55;13.07;;;;;;;20.15;64.07;94966.22;5114760;28;20191;-68
2022/05/25 08:12:07;;;;;;;15.65;14.15;;;;;;;20.23;64.23;94966.97;5115352;28;20183;-68
2022/05/25 08:14:35;;;;;;;14.35;12.73;;;;;;;20.19;63.85;94964.97;5115216;28;20200;-68
2022/05/25 08:17:02;;;;;;;13.32;11.93;;;;;;;20.28;64.65;94960.88;5115520;28;20194;-68
2022/05/25 08:19:30;;;;;;;14.63;12.15;;;;;;;20.36;63.81;94951.97;5114600;28;20215;-68
2022/05/25 08:21:57;;;;;;;15.20;13.60;;;;;;;20.47;63.96;94954.63;5115718;28;20172;-68
2022/05/25 08:24:24;;;;;;;13.88;12.48;;;;;;;20.53;63.12;94960.59;5114333;28;20612;-68
2022/05/25 08:26:51;;;;;;;11.70;10.50;;;;;;;20.58;63.07;94963.72;5114710;28;20226;-68
2022/05/25 08:29:18;;;;;;;14.02;12.70;;;;;;;20.70;63.58;94981.19;5115179;28;20596;-67
2022/05/25 08:31:46;;;;;;;14.43;12.30;;;;;;;20.77;62.75;94979.09;5115732;28;20191;-67
2022/05/25 08:34:13;;;;;;;12.95;11.65;;;;;;;20.83;63.16;94974.59;5115399;28;20211;-67
2022/05/25 08:36:39;;;;;;;13.82;12.43;;;;;;;21.01;63.77;94965.13;5115293;28;20198;-67
2022/05/25 08:39:06;;;;;;;13.15;11.88;;;;;;;21.21;63.41;94968.84;5114113;28;20206;-67
2022/05/25 08:41:36;;;;;;;15.43;12.60;;;;;;;21.45;61.51;94968.88;5114186;28;20207;-67
2022/05/25 08:44:04;;;;;;;14.55;12.43;;;;;;;21.55;62.07;94973.53;5114857;28;20284;-67
2022/05/25 08:46:32;;;;;;;14.43;12.90;;;;;;;21.63;62.31;94975.00;5118630;28;20489;-67
2022/05/25 08:49:02;;;;;;;14.20;12.63;;;;;;;21.68;60.66;94988.56;5118868;28;20176;-67
2022/05/25 08:51:31;;;;;;;13.88;11.23;;;;;;;21.66;60.61;94973.34;5118880;28;20260;-67
2022/05/25 08:53:59;;;;;;;15.52;14.05;;;;;;;21.80;60.90;94970.31;5118622;28;20219;-67
2022/05/25 08:56:30;;;;;;;13.90;12.35;;;;;;;21.82;60.69;94968.66;5118194;28;20262;-67
2022/05/25 08:59:02;;;;;;;16.48;13.85;;;;;;;21.96;61.87;94970.41;5118815;28;20233;-67
2022/05/25 09:01:32;;;;;;;15.55;12.93;;;;;;;22.04;60.23;94971.88;5118503;28;20218;-68
2022/05/25 09:04:05;;;;;;;13.40;12.13;;;;;;;22.16;60.91;94970.47;5119168;28;20180;-67
2022/05/25 09:06:41;;;;;;;14.20;12.82;;;;;;;22.29;59.35;94965.00;5118134;28;20280;-68
2022/05/25 09:09:11;;;;;;;14.60;12.45;;;;;;;22.41;59.35;94955.94;5119022;28;20179;-68
2022/05/25 09:11:41;;;;;;;13.55;12.25;;;;;;;22.35;58.42;94964.06;5118372;28;20664;-68
2022/05/25 09:14:14;;;;;;;13.77;12.32;;;;;;;22.62;58.94;94960.28;5118679;28;20204;-68
2022/05/25 09:16:41;;;;;;;13.30;11.98;;;;;;;22.83;58.78;94968.28;5117951;28;20198;-67
2022/05/25 09:19:12;;;;;;;13.68;11.65;;;;;;;22.93;58.40;94977.75;5118833;28;20192;-67
2022/05/25 09:21:41;;;;;;;12.82;11.57;;;;;;;23.08;58.64;94972.59;5117517;28;20248;-67
2022/05/25 09:24:12;;;;;;;14.90;13.50;;;;;;;23.13;58.06;94974.06;5118012;28;20188;-67
2022/05/25 09:26:39;;;;;;;14.02;10.98;;;;;;;23.32;58.98;94978.88;5117728;28;20219;-67
2022/05/25 09:29:08;;;;;;;13.85;11.45;;;;;;;23.51;57.33;94974.38;5117839;28;20199;-67
2022/05/25 09:31:41;;;;;;;14.15;11.20;;;;;;;23.73;56.93;94978.28;5118617;28;20195;-67
2022/05/25 09:34:12;;;;;;;13.30;12.00;;;;;;;23.87;55.18;94973.53;5118337;28;20579;-67
2022/05/25 09:36:44;;;;;;;15.50;11.40;;;;;;;23.86;55.65;94969.94;5117619;28;20208;-68
2022/05/25 09:39:17;;;;;;;13.90;11.88;;;;;;;23.89;55.79;94971.03;5118515;28;20205;-68
2022/05/25 09:41:45;;;;;;;14.77;11.20;;;;;;;23.88;55.77;94966.66;5117651;28;20207;-68
2022/05/25 09:44:16;;;;;;;13.70;12.27;;;;;;;23.89;55.19;94962.59;5116856;28;20285;-68
2022/05/25 09:46:46;;;;;;;14.27;11.10;;;;;;;23.95;55.63;94958.03;5117223;28;20199;-68
2022/05/25 09:49:29;;;;;;;14.40;12.18;;;;;;;24.14;56.04;94959.13;5117791;28;20554;-68
2022/05/25 09:51:55;;;;;;;16.00;11.07;;;;;;;24.21;55.00;94959.72;5117341;28;20192;-68
2022/05/25 09:54:27;;;;;;;11.70;10.52;;;;;;;24.47;56.74;94948.56;5117147;28;20207;-68
2022/05/25 09:56:56;;;;;;;12.13;10.90;;;;;;;24.68;53.62;94941.50;5117063;28;20207;-68
2022/05/25 09:59:25;;;;;;;14.13;12.20;;;;;;;24.79;53.32;94944.03;5118152;28;20195;-68
2022/05/25 10:01:54;;;;;;;14.38;11.23;;;;;;;24.80;52.41;94929.47;5117569;28;20185;-68
2022/05/25 10:04:39;;;;;;;14.95;10.85;;;;;;;24.88;53.11;94933.66;5118076;28;20219;-68
2022/05/25 10:07:15;;;;;;;15.90;11.38;;;;;;;24.81;53.00;94933.88;5116553;28;20203;-68
2022/05/25 10:09:47;;;;;;;13.55;11.32;;;;;;;24.82;53.79;94935.44;5116537;28;20619;-68
2022/05/25 10:12:22;;;;;;;13.80;11.48;;;;;;;25.12;51.41;94936.19;5117531;28;20188;-68
2022/05/25 10:14:56;;;;;;;13.20;11.10;;;;;;;25.10;51.00;94924.53;5117474;28;20630;-67
2022/05/25 10:17:32;;;;;;;15.32;10.90;;;;;;;25.05;50.74;94920.22;5117646;28;20199;-67
2022/05/25 10:20:00;;;;;;;13.30;10.57;;;;;;;25.03;51.24;94924.75;5117917;28;20180;-67
2022/05/25 10:22:32;;;;;;;11.75;10.57;;;;;;;25.25;51.71;94922.88;5116837;28;20203;-68
2022/05/25 10:25:00;;;;;;;12.57;9.75;;;;;;;25.41;50.70;94933.22;5117581;28;20207;-68
2022/05/25 10:27:34;;;;;;;12.02;10.18;;;;;;;25.44;49.67;94923.88;5116421;28;20248;-68
2022/05/25 10:38:40;;;;;;;12.45;10.55;;;;;;;25.96;49.78;94910.44;5116455;28;20596;-67
2022/05/25 10:43:48;;;;;;;12.52;10.02;;;;;;;26.18;48.80;94894.28;5115236;28;20322;-67
2022/05/25 10:46:15;;;;;;;13.70;10.70;;;;;;;26.28;48.46;94883.84;5116919;28;20639;-67
2022/05/25 10:48:46;;;;;;;13.05;9.75;;;;;;;26.34;49.30;94884.84;5116962;28;20237;-67
2022/05/25 10:51:20;;;;;;;11.80;9.95;;;;;;;26.38;48.44;94885.50;5116930;28;20203;-67
2022/05/25 10:56:40;;;;;;;11.35;10.15;;;;;;;26.47;49.17;94877.13;5116474;28;20282;-67
2022/05/25 10:59:14;;;;;;;12.13;9.40;;;;;;;26.62;48.47;94880.97;5115928;28;20202;-68
2022/05/25 11:01:55;;;;;;;12.13;9.32;;;;;;;26.72;46.66;94878.19;5116295;28;20196;-68
2022/05/25 11:04:36;;;;;;;13.18;9.40;;;;;;;26.76;46.75;94873.19;5115920;28;20252;-68
2022/05/25 11:07:17;;;;;;;10.52;9.38;;;;;;;26.81;46.60;94864.88;5116673;28;20183;-68
2022/05/25 11:10:06;;;;;;;13.60;9.07;;;;;;;26.88;46.34;94861.00;5116404;28;20188;-68
2022/05/25 11:12:38;;;;;;;10.43;8.00;;;;;;;26.89;45.80;94857.69;5116456;28;20273;-68
2022/05/25 11:15:13;;;;;;;8.88;7.40;;;;;;;26.86;44.03;94867.09;5116296;28;20223;-68
2022/05/25 11:17:56;;;;;;;10.35;7.47;;;;;;;26.86;43.99;94866.31;5116413;28;20266;-68
2022/05/25 11:20:27;;;;;;;12.82;7.78;;;;;;;26.89;43.32;94869.00;5115456;28;20237;-68
2022/05/25 11:23:22;;;;;;;10.35;7.50;;;;;;;27.01;44.49;94860.88;5116290;28;20199;-68
2022/05/25 11:25:59;;;;;;;9.27;7.07;;;;;;;27.42;42.17;94856.81;5112923;28;20203;-68
2022/05/25 11:28:35;;;;;;;8.18;6.85;;;;;;;27.56;43.08;94856.22;5115435;28;20596;-67
2022/05/25 11:31:11;;;;;;;7.65;6.88;;;;;;;27.77;41.83;94857.34;5115335;28;20311;-67
2022/05/25 11:34:02;;;;;;;10.45;7.82;;;;;;;27.71;42.51;94855.59;5115685;28;20227;-67
2022/05/25 11:36:44;;;;;;;7.35;6.60;;;;;;;27.63;41.64;94852.25;5115344;28;20210;-67
2022/05/25 11:39:16;;;;;;;12.18;6.35;;;;;;;27.81;39.91;94845.88;5116071;28;20188;-67
2022/05/25 11:41:52;;;;;;;11.65;7.00;;;;;;;27.83;39.45;94846.97;5116065;28;20191;-67
2022/05/25 11:44:39;;;;;;;9.00;6.90;;;;;;;27.86;39.19;94835.97;5114932;28;20263;-67
2022/05/25 11:47:12;;;;;;;7.28;5.38;;;;;;;27.84;36.98;94837.22;5116366;28;20191;-67
2022/05/25 11:49:56;;;;;;;6.38;4.70;;;;;;;27.83;35.11;94829.97;5115061;28;20508;-67
2022/05/25 11:52:46;;;;;;;12.45;4.22;;;;;;;28.06;32.53;94827.75;5115978;28;20199;-67
2022/05/25 11:55:19;;;;;;;7.63;4.55;;;;;;;28.08;33.46;94834.53;5110998;28;20380;-67
2022/05/25 11:57:54;;;;;;;5.20;4.03;;;;;;;28.05;33.46;94826.19;5116121;28;20253;-67
2022/05/25 12:00:39;;;;;;;5.55;3.78;;;;;;;28.12;32.62;94825.09;5115177;28;20208;-67
2022/05/25 12:03:33;;;;;;;9.90;4.50;;;;;;;28.16;31.79;94805.88;5114762;28;20212;-67
2022/05/25 12:06:07;;;;;;;6.93;4.53;;;;;;;28.19;31.14;94813.44;5113980;28;20222;-68